createdAt,value
2023-05-07T00:00:38.965Z,98510.03
2023-05-07T00:01:41.272Z,98506.81
2023-05-07T00:02:44.297Z,98509.53
2023-05-07T00:03:46.374Z,98506.03
2023-05-07T00:04:48.772Z,98506.81
2023-05-07T00:05:50.818Z,98499.31
2023-05-07T00:06:52.670Z,98508.53
2023-05-07T00:07:54.578Z,98504.19
2023-05-07T00:08:58.817Z,98498.78
2023-05-07T00:10:00.659Z,98506.91
2023-05-07T00:11:02.616Z,98505.31
2023-05-07T00:12:04.719Z,98497.19
2023-05-07T00:13:06.647Z,98506.41
2023-05-07T00:14:08.660Z,98498.91
2023-05-07T00:15:11.711Z,98506.72
2023-05-07T00:16:13.968Z,98504.81
2023-05-07T00:17:15.924Z,98502.09
2023-05-07T00:18:17.824Z,98496.19
2023-05-07T00:19:19.782Z,98508.13
2023-05-07T00:20:21.904Z,98502.72
2023-05-07T00:21:23.903Z,98503.81
2023-05-07T00:22:26.003Z,98509.53
2023-05-07T00:23:28.136Z,98502.53
2023-05-07T00:24:29.981Z,98503.31
2023-05-07T00:25:31.935Z,98503.31
2023-05-07T00:26:34.234Z,98506.28
2023-05-07T00:27:36.118Z,98500.09
2023-05-07T00:28:37.972Z,98498.97
2023-05-07T00:29:40.290Z,98493.06
2023-05-07T00:30:42.141Z,98500.09
2023-05-07T00:31:44.110Z,98499.28
2023-05-07T00:32:46.703Z,98487.19
2023-05-07T00:33:48.724Z,98491.78
2023-05-07T00:34:52.026Z,98487.19
2023-05-07T00:35:55.387Z,98481.75
2023-05-07T00:36:57.497Z,98485.56
2023-05-07T00:37:59.732Z,98485.56
2023-05-07T00:39:04.487Z,98481.28
2023-05-07T00:40:08.923Z,98485.88
2023-05-07T00:41:11.322Z,98486.97
2023-05-07T00:42:13.284Z,98489.69
2023-05-07T00:43:16.105Z,98481.06
2023-05-07T00:44:19.269Z,98486.47
2023-05-07T00:45:21.109Z,98480.28
2023-05-07T00:46:24.310Z,98487.84
2023-05-07T00:47:27.330Z,98483.22
2023-05-07T00:48:29.443Z,98485.13
2023-05-07T00:49:42.557Z,98480.53
2023-05-07T00:50:46.836Z,98484.63
2023-05-07T00:51:49.065Z,98486.03
2023-05-07T00:52:51.336Z,98490.34
2023-05-07T00:53:53.557Z,98481.22
2023-05-07T00:54:56.198Z,98486.34
2023-05-07T00:55:58.600Z,98484.75
2023-05-07T00:57:00.475Z,98482.03
2023-05-07T00:58:02.519Z,98486.34
2023-05-07T00:59:04.731Z,98473.94
2023-05-07T01:00:10.036Z,98475.03
2023-05-07T01:01:12.504Z,98472.91
2023-05-07T01:02:14.533Z,98474.00
2023-05-07T01:03:16.983Z,98476.72
2023-05-07T01:04:19.294Z,98469.41
2023-05-07T01:05:25.955Z,98474.81
2023-05-07T01:06:31.220Z,98472.41
2023-05-07T01:07:35.734Z,98475.41
2023-05-07T01:08:40.728Z,98472.22
2023-05-07T01:09:42.673Z,98473.81
2023-05-07T01:10:47.012Z,98471.91
2023-05-07T01:11:51.337Z,98479.53
2023-05-07T01:12:55.116Z,98472.50
2023-05-07T01:14:00.370Z,98473.63
2023-05-07T01:15:03.999Z,98477.91
2023-05-07T01:16:06.552Z,98472.81
2023-05-07T01:17:09.444Z,98476.59
2023-05-07T01:18:11.823Z,98469.88
2023-05-07T01:19:17.163Z,98471.50
2023-05-07T01:20:20.169Z,98463.38
2023-05-07T01:21:27.722Z,98460.97
2023-05-07T01:22:38.017Z,98458.28
2023-05-07T01:23:41.766Z,98465.88
2023-05-07T01:24:44.440Z,98465.88
2023-05-07T01:25:56.474Z,98456.97
2023-05-07T01:26:58.385Z,98460.78
2023-05-07T01:28:03.440Z,98462.69
2023-05-07T01:29:05.363Z,98457.28
2023-05-07T01:30:08.320Z,98463.78
2023-05-07T01:31:11.296Z,98458.94
2023-05-07T01:32:16.227Z,98459.75
2023-05-07T01:33:25.046Z,98470.56
2023-05-07T01:34:32.366Z,98465.16
2023-05-07T01:35:41.597Z,98463.56
2023-05-07T01:36:46.009Z,98470.06
2023-05-07T01:37:49.468Z,98470.06
2023-05-07T01:38:51.601Z,98464.97
2023-05-07T01:39:54.846Z,98464.47
2023-05-07T01:40:58.142Z,98466.06
2023-05-07T01:42:00.927Z,98462.88
2023-05-07T01:43:07.280Z,98467.97
2023-05-07T01:44:13.499Z,98466.97
2023-05-07T01:45:15.764Z,98462.38
2023-05-07T01:46:20.153Z,98469.06
2023-05-07T01:47:23.678Z,98469.66
2023-05-07T01:48:27.026Z,98460.75
2023-05-07T01:49:29.176Z,98474.28
2023-05-07T01:50:33.532Z,98461.03
2023-05-07T01:51:36.576Z,98461.63
2023-05-07T01:52:41.215Z,98463.75
2023-05-07T01:53:44.859Z,98464.84
2023-05-07T01:54:46.649Z,98459.44
2023-05-07T01:55:48.545Z,98461.34
2023-05-07T01:56:50.564Z,98461.63
2023-05-07T01:57:52.487Z,98460.34
2023-05-07T01:58:54.402Z,98462.25
2023-05-07T01:59:56.636Z,98462.25
2023-05-07T02:00:58.568Z,98458.75
2023-05-07T02:02:00.560Z,98459.53
2023-05-07T02:03:02.984Z,98462.53
2023-05-07T02:04:05.338Z,98458.75
2023-05-07T02:05:07.726Z,98451.22
2023-05-07T02:06:09.701Z,98460.94
2023-05-07T02:07:11.701Z,98460.13
2023-05-07T02:08:13.600Z,98459.34
2023-05-07T02:09:16.181Z,98465.00
2023-05-07T02:10:20.993Z,98463.63
2023-05-07T02:11:22.830Z,98465.00
2023-05-07T02:12:24.838Z,98463.41
2023-05-07T02:13:31.213Z,98468.25
2023-05-07T02:14:33.131Z,98467.22
2023-05-07T02:15:35.090Z,98465.00
2023-05-07T02:16:37.431Z,98467.22
2023-05-07T02:18:01.948Z,98471.22
2023-05-07T02:19:04.403Z,98467.22
2023-05-07T02:20:08.369Z,98477.50
2023-05-07T02:21:10.366Z,98477.50
2023-05-07T02:22:12.607Z,98473.50
2023-05-07T02:23:14.510Z,98475.09
2023-05-07T02:24:16.844Z,98479.69
2023-05-07T02:25:18.986Z,98476.19
2023-05-07T02:26:22.453Z,98480.50
2023-05-07T02:27:24.326Z,98479.19
2023-05-07T02:28:26.340Z,98476.50
2023-05-07T02:29:28.244Z,98471.09
2023-05-07T02:30:30.078Z,98471.09
2023-05-07T02:31:32.531Z,98469.47
2023-05-07T02:32:34.798Z,98470.28
2023-05-07T02:33:37.598Z,98472.19
2023-05-07T02:34:39.601Z,98468.16
2023-05-07T02:35:41.543Z,98473.25
2023-05-07T02:36:43.905Z,98475.16
2023-05-07T02:37:45.783Z,98469.75
2023-05-07T02:38:47.722Z,98477.06
2023-05-07T02:39:49.582Z,98472.75
2023-05-07T02:40:51.485Z,98474.66
2023-05-07T02:41:53.323Z,98474.16
2023-05-07T02:42:55.390Z,98471.44
2023-05-07T02:43:57.606Z,98474.94
2023-05-07T02:44:59.655Z,98473.06
2023-05-07T02:46:10.472Z,98474.94
2023-05-07T02:47:14.447Z,98477.16
2023-05-07T02:48:16.335Z,98472.84
2023-05-07T02:49:18.149Z,98474.75
2023-05-07T02:50:20.054Z,98477.44
2023-05-07T02:51:25.383Z,98475.06
2023-05-07T02:52:28.090Z,98473.44
2023-05-07T02:53:30.462Z,98469.13
2023-05-07T02:54:32.837Z,98469.13
2023-05-07T02:55:34.672Z,98471.81
2023-05-07T02:56:36.581Z,98475.63
2023-05-07T02:57:38.457Z,98470.22
2023-05-07T02:58:40.404Z,98472.41
2023-05-07T02:59:43.663Z,98466.22
2023-05-07T03:00:45.764Z,98471.63
2023-05-07T03:01:47.792Z,98464.63
2023-05-07T03:02:49.813Z,98462.72
2023-05-07T03:03:51.861Z,98461.09
2023-05-07T03:04:54.060Z,98459.50
2023-05-07T03:05:56.086Z,98465.22
2023-05-07T03:06:58.001Z,98460.59
2023-05-07T03:08:00.479Z,98466.31
2023-05-07T03:09:02.679Z,98456.59
2023-05-07T03:10:06.079Z,98455.78
2023-05-07T03:11:07.973Z,98453.91
2023-05-07T03:12:09.755Z,98455.78
2023-05-07T03:13:11.748Z,98462.00
2023-05-07T03:14:13.703Z,98453.06
2023-05-07T03:15:15.849Z,98454.16
2023-05-07T03:16:17.753Z,98457.16
2023-05-07T03:17:19.673Z,98441.56
2023-05-07T03:18:21.707Z,98443.16
2023-05-07T03:19:23.861Z,98446.66
2023-05-07T03:20:25.903Z,98452.38
2023-05-07T03:21:27.861Z,98452.66
2023-05-07T03:22:29.805Z,98456.47
2023-05-07T03:23:31.666Z,98455.66
2023-05-07T03:24:33.653Z,98455.38
2023-05-07T03:25:35.882Z,98452.16
2023-05-07T03:26:37.710Z,98459.16
2023-05-07T03:27:39.681Z,98446.75
2023-05-07T03:28:41.995Z,98451.38
2023-05-07T03:29:44.190Z,98449.22
2023-05-07T03:30:46.037Z,98455.72
2023-05-07T03:31:48.043Z,98445.72
2023-05-07T03:32:50.093Z,98445.22
2023-05-07T03:33:57.757Z,98444.13
2023-05-07T03:34:59.654Z,98446.03
2023-05-07T03:36:02.351Z,98446.31
2023-05-07T03:37:04.446Z,98448.72
2023-05-07T03:38:06.807Z,98449.03
2023-05-07T03:39:08.834Z,98439.63
2023-05-07T03:40:12.232Z,98436.91
2023-05-07T03:41:14.388Z,98443.72
2023-05-07T03:42:16.534Z,98442.63
2023-05-07T03:43:18.566Z,98441.00
2023-05-07T03:44:21.087Z,98440.19
2023-05-07T03:45:23.036Z,98434.28
2023-05-07T03:46:27.245Z,98439.69
2023-05-07T03:47:29.254Z,98440.78
2023-05-07T03:48:31.231Z,98443.47
2023-05-07T03:49:33.101Z,98437.28
2023-05-07T03:50:35.038Z,98437.28
2023-05-07T03:51:37.153Z,98443.47
2023-05-07T03:52:38.992Z,98443.78
2023-05-07T03:53:40.811Z,98439.97
2023-05-07T03:54:42.645Z,98448.66
2023-05-07T03:55:44.526Z,98448.66
2023-05-07T03:56:46.456Z,98449.47
2023-05-07T03:57:48.291Z,98450.28
2023-05-07T03:58:50.370Z,98449.78
2023-05-07T03:59:52.536Z,98460.56
2023-05-07T04:00:54.736Z,98455.16
2023-05-07T04:01:56.786Z,98457.06
2023-05-07T04:02:59.068Z,98451.13
2023-05-07T04:04:01.064Z,98456.78
2023-05-07T04:05:02.986Z,98454.91
2023-05-07T04:06:04.980Z,98457.09
2023-05-07T04:07:06.876Z,98454.91
2023-05-07T04:08:09.132Z,98462.19
2023-05-07T04:09:11.444Z,98466.78
2023-05-07T04:10:14.486Z,98469.78
2023-05-07T04:11:16.629Z,98469.78
2023-05-07T04:12:18.529Z,98462.78
2023-05-07T04:13:20.688Z,98473.59
2023-05-07T04:14:22.905Z,98478.97
2023-05-07T04:15:25.415Z,98474.69
2023-05-07T04:16:27.370Z,98474.97
2023-05-07T04:17:29.363Z,98480.38
2023-05-07T04:18:31.307Z,98483.88
2023-05-07T04:19:34.946Z,98471.19
2023-05-07T04:20:37.823Z,98485.75
2023-05-07T04:21:39.839Z,98479.56
2023-05-07T04:22:41.766Z,98488.47
2023-05-07T04:23:43.919Z,98490.38
2023-05-07T04:24:45.740Z,98489.56
2023-05-07T04:25:47.657Z,98491.75
2023-05-07T04:26:49.860Z,98486.63
2023-05-07T04:27:51.916Z,98491.22
2023-05-07T04:28:53.728Z,98486.63
2023-05-07T04:29:57.095Z,98495.00
2023-05-07T04:30:59.518Z,98488.81
2023-05-07T04:32:01.527Z,98483.41
2023-05-07T04:33:04.017Z,98486.13
2023-05-07T04:34:06.493Z,98487.72
2023-05-07T04:35:08.624Z,98488.00
2023-05-07T04:36:10.540Z,98489.09
2023-05-07T04:37:12.565Z,98489.09
2023-05-07T04:38:14.454Z,98488.59
2023-05-07T04:39:16.308Z,98488.31
2023-05-07T04:40:18.282Z,98493.72
2023-05-07T04:41:20.641Z,98491.00
2023-05-07T04:42:22.519Z,98485.91
2023-05-07T04:43:24.735Z,98498.59
2023-05-07T04:44:26.779Z,98493.50
2023-05-07T04:45:28.913Z,98495.91
2023-05-07T04:46:32.637Z,98494.88
2023-05-07T04:47:34.970Z,98494.59
2023-05-07T04:48:37.191Z,98493.78
2023-05-07T04:49:41.922Z,98490.56
2023-05-07T04:50:43.888Z,98495.16
2023-05-07T04:51:45.886Z,98491.09
2023-05-07T04:52:47.803Z,98495.94
2023-05-07T04:53:50.486Z,98497.56
2023-05-07T04:54:52.271Z,98498.94
2023-05-07T04:55:58.048Z,98503.25
2023-05-07T04:56:59.927Z,98506.75
2023-05-07T04:58:02.945Z,98506.22
2023-05-07T04:59:04.872Z,98502.72
2023-05-07T05:00:09.851Z,98498.94
2023-05-07T05:01:12.383Z,98504.63
2023-05-07T05:02:14.448Z,98510.81
2023-05-07T05:03:16.815Z,98510.03
2023-05-07T05:04:18.777Z,98507.31
2023-05-07T05:05:20.990Z,98509.22
2023-05-07T05:06:22.902Z,98501.41
2023-05-07T05:07:25.329Z,98509.50
2023-05-07T05:08:27.752Z,98512.72
2023-05-07T05:09:29.709Z,98513.00
2023-05-07T05:10:31.525Z,98510.31
2023-05-07T05:11:33.631Z,98508.72
2023-05-07T05:12:35.758Z,98512.22
2023-05-07T05:13:37.633Z,98505.22
2023-05-07T05:14:39.620Z,98510.59
2023-05-07T05:15:41.672Z,98513.81
2023-05-07T05:16:43.679Z,98510.31
2023-05-07T05:17:45.971Z,98520.81
2023-05-07T05:18:47.861Z,98513.00
2023-05-07T05:19:49.677Z,98517.59
2023-05-07T05:20:53.035Z,98515.72
2023-05-07T05:21:54.992Z,98516.00
2023-05-07T05:22:56.861Z,98519.50
2023-05-07T05:23:59.737Z,98519.50
2023-05-07T05:25:02.194Z,98520.81
2023-05-07T05:26:04.104Z,98516.50
2023-05-07T05:27:07.126Z,98520.00
2023-05-07T05:28:08.960Z,98524.59
2023-05-07T05:29:11.138Z,98523.00
2023-05-07T05:30:13.882Z,98519.50
2023-05-07T05:31:15.874Z,98521.91
2023-05-07T05:32:17.731Z,98512.22
2023-05-07T05:33:19.500Z,98522.41
2023-05-07T05:34:21.497Z,98520.00
2023-05-07T05:35:23.370Z,98520.81
2023-05-07T05:36:25.275Z,98520.81
2023-05-07T05:37:27.788Z,98516.50
2023-05-07T05:38:29.729Z,98515.72
2023-05-07T05:39:31.833Z,98527.81
2023-05-07T05:40:34.348Z,98518.91
2023-05-07T05:41:36.284Z,98521.31
2023-05-07T05:42:38.182Z,98517.03
2023-05-07T05:43:40.053Z,98515.13
2023-05-07T05:44:42.024Z,98522.41
2023-05-07T05:45:44.021Z,98517.81
2023-05-07T05:46:46.246Z,98519.44
2023-05-07T05:47:48.560Z,98521.03
2023-05-07T05:48:50.485Z,98524.81
2023-05-07T05:49:52.478Z,98521.31
2023-05-07T05:50:54.628Z,98519.16
2023-05-07T05:51:57.012Z,98518.06
2023-05-07T05:53:00.417Z,98514.84
2023-05-07T05:54:02.528Z,98520.22
2023-05-07T05:55:04.805Z,98521.03
2023-05-07T05:56:07.336Z,98523.47
2023-05-07T05:57:09.568Z,98521.88
2023-05-07T05:58:11.620Z,98519.44
2023-05-07T05:59:13.579Z,98527.25
2023-05-07T06:00:15.774Z,98510.53
2023-05-07T06:01:19.799Z,98527.53
2023-05-07T06:02:21.930Z,98514.31
2023-05-07T06:03:24.073Z,98523.72
2023-05-07T06:04:26.049Z,98522.13
2023-05-07T06:05:28.262Z,98528.88
2023-05-07T06:06:30.323Z,98526.16
2023-05-07T06:07:32.149Z,98521.88
2023-05-07T06:08:34.034Z,98531.28
2023-05-07T06:09:36.045Z,98531.28
2023-05-07T06:10:39.170Z,98536.66
2023-05-07T06:11:42.020Z,98532.88
2023-05-07T06:12:44.105Z,98533.66
2023-05-07T06:13:46.014Z,98538.56
2023-05-07T06:14:48.492Z,98535.56
2023-05-07T06:15:50.902Z,98529.59
2023-05-07T06:16:52.872Z,98531.19
2023-05-07T06:17:57.106Z,98534.97
2023-05-07T06:18:59.103Z,98533.09
2023-05-07T06:20:01.015Z,98536.88
2023-05-07T06:21:03.562Z,98531.19
2023-05-07T06:22:06.819Z,98533.88
2023-05-07T06:23:08.710Z,98531.19
2023-05-07T06:24:11.137Z,98532.78
2023-05-07T06:25:13.156Z,98539.28
2023-05-07T06:26:15.029Z,98535.50
2023-05-07T06:27:16.977Z,98530.91
2023-05-07T06:28:19.109Z,98526.59
2023-05-07T06:29:21.380Z,98534.41
2023-05-07T06:30:23.465Z,98532.50
2023-05-07T06:31:34.418Z,98530.59
2023-05-07T06:32:36.419Z,98536.00
2023-05-07T06:33:38.326Z,98538.69
2023-05-07T06:34:42.132Z,98532.78
2023-05-07T06:35:44.095Z,98541.13
2023-05-07T06:36:46.010Z,98538.69
2023-05-07T06:37:47.974Z,98541.13
2023-05-07T06:38:49.916Z,98543.03
2023-05-07T06:39:51.940Z,98546.53
2023-05-07T06:40:56.230Z,98552.72
2023-05-07T06:41:58.644Z,98541.94
2023-05-07T06:43:00.788Z,98552.44
2023-05-07T06:44:04.050Z,98544.63
2023-05-07T06:45:06.742Z,98555.13
2023-05-07T06:46:08.778Z,98544.34
2023-05-07T06:47:11.353Z,98549.75
2023-05-07T06:48:14.266Z,98539.22
2023-05-07T06:49:16.978Z,98540.84
2023-05-07T06:50:19.046Z,98535.16
2023-05-07T06:51:21.092Z,98542.16
2023-05-07T06:52:23.271Z,98536.53
2023-05-07T06:53:25.740Z,98539.44
2023-05-07T06:54:27.625Z,98530.25
2023-05-07T06:55:29.798Z,98529.97
2023-05-07T06:56:32.777Z,98526.47
2023-05-07T06:57:34.739Z,98531.56
2023-05-07T06:58:38.489Z,98525.38
2023-05-07T06:59:40.624Z,98529.97
2023-05-07T07:00:42.726Z,98529.66
2023-05-07T07:01:45.013Z,98529.66
2023-05-07T07:02:47.183Z,98526.44
2023-05-07T07:03:49.108Z,98526.69
2023-05-07T07:04:51.155Z,98521.84
2023-05-07T07:05:54.622Z,98517.53
2023-05-07T07:06:57.648Z,98532.66
2023-05-07T07:07:59.558Z,98521.56
2023-05-07T07:09:01.675Z,98522.66
2023-05-07T07:10:05.316Z,98530.44
2023-05-07T07:11:07.747Z,98524.25
2023-05-07T07:12:10.026Z,98523.66
2023-05-07T07:13:12.212Z,98520.44
2023-05-07T07:14:14.275Z,98523.66
2023-05-07T07:15:16.846Z,98523.94
2023-05-07T07:16:18.809Z,98522.56
2023-05-07T07:17:20.787Z,98529.06
2023-05-07T07:18:22.678Z,98536.06
2023-05-07T07:19:24.850Z,98527.66
2023-05-07T07:20:26.780Z,98521.16
2023-05-07T07:21:28.677Z,98527.41
2023-05-07T07:22:30.613Z,98528.19
2023-05-07T07:23:32.524Z,98526.00
2023-05-07T07:24:34.503Z,98526.50
2023-05-07T07:25:36.542Z,98527.03
2023-05-07T07:26:38.419Z,98528.41
2023-05-07T07:27:41.096Z,98534.31
2023-05-07T07:28:47.046Z,98522.94
2023-05-07T07:29:49.203Z,98529.41
2023-05-07T07:30:51.201Z,98525.91
2023-05-07T07:31:53.491Z,98531.03
2023-05-07T07:32:59.388Z,98527.81
2023-05-07T07:34:01.300Z,98534.53
2023-05-07T07:35:03.416Z,98528.84
2023-05-07T07:36:07.709Z,98529.13
2023-05-07T07:37:09.793Z,98533.44
2023-05-07T07:38:11.781Z,98530.16
2023-05-07T07:39:14.431Z,98529.38
2023-05-07T07:40:16.757Z,98527.47
2023-05-07T07:41:18.642Z,98530.16
2023-05-07T07:42:20.634Z,98536.88
2023-05-07T07:43:22.548Z,98526.06
2023-05-07T07:44:24.634Z,98535.28
2023-05-07T07:45:26.662Z,98531.97
2023-05-07T07:46:28.670Z,98529.28
2023-05-07T07:47:30.914Z,98533.59
2023-05-07T07:48:32.910Z,98528.97
2023-05-07T07:49:35.161Z,98528.97
2023-05-07T07:50:45.498Z,98535.19
2023-05-07T07:51:48.223Z,98526.81
2023-05-07T07:52:51.046Z,98533.03
2023-05-07T07:53:52.958Z,98533.03
2023-05-07T07:54:54.872Z,98537.31
2023-05-07T07:55:59.331Z,98538.94
2023-05-07T07:57:02.499Z,98543.22
2023-05-07T07:58:04.403Z,98540.22
2023-05-07T07:59:06.347Z,98540.72
2023-05-07T08:00:09.409Z,98536.44
2023-05-07T08:01:13.275Z,98536.13
2023-05-07T08:02:15.276Z,98536.13
2023-05-07T08:03:17.690Z,98536.63
2023-05-07T08:04:19.884Z,98539.34
2023-05-07T08:05:21.975Z,98536.63
2023-05-07T08:06:24.132Z,98532.88
2023-05-07T08:07:26.045Z,98533.38
2023-05-07T08:08:28.036Z,98537.97
2023-05-07T08:09:29.910Z,98539.56
2023-05-07T08:10:36.026Z,98538.78
2023-05-07T08:11:38.139Z,98539.28
2023-05-07T08:12:40.257Z,98540.59
2023-05-07T08:13:42.689Z,98538.19
2023-05-07T08:14:45.041Z,98543.00
2023-05-07T08:15:47.095Z,98543.00
2023-05-07T08:16:49.172Z,98544.88
2023-05-07T08:17:51.075Z,98547.28
2023-05-07T08:18:53.011Z,98537.03
2023-05-07T08:19:54.905Z,98539.72
2023-05-07T08:20:57.044Z,98543.50
2023-05-07T08:21:58.988Z,98544.03
2023-05-07T08:23:01.086Z,98541.31
2023-05-07T08:24:03.259Z,98539.94
2023-05-07T08:25:05.754Z,98546.66
2023-05-07T08:26:09.490Z,98542.31
2023-05-07T08:27:11.372Z,98541.53
2023-05-07T08:28:13.437Z,98540.47
2023-05-07T08:29:15.487Z,98540.16
2023-05-07T08:30:17.433Z,98539.34
2023-05-07T08:31:19.429Z,98539.06
2023-05-07T08:32:21.802Z,98539.06
2023-05-07T08:33:23.739Z,98540.41
2023-05-07T08:34:25.857Z,98532.28
2023-05-07T08:35:28.980Z,98536.59
2023-05-07T08:36:30.919Z,98532.28
2023-05-07T08:37:33.213Z,98536.28
2023-05-07T08:38:35.362Z,98531.19
2023-05-07T08:39:37.220Z,98529.28
2023-05-07T08:40:41.905Z,98531.69
2023-05-07T08:41:47.816Z,98525.19
2023-05-07T08:42:52.802Z,98527.28
2023-05-07T08:43:59.174Z,98529.19
2023-05-07T08:45:02.164Z,98533.00
2023-05-07T08:46:09.480Z,98534.28
2023-05-07T08:47:12.159Z,98533.19
2023-05-07T08:48:18.728Z,98534.00
2023-05-07T08:49:21.646Z,98544.00
2023-05-07T08:50:23.968Z,98535.63
2023-05-07T08:51:25.844Z,98541.03
2023-05-07T08:52:28.557Z,98540.19
2023-05-07T08:53:30.941Z,98537.22
2023-05-07T08:54:34.410Z,98534.53
2023-05-07T08:55:36.361Z,98541.03
2023-05-07T08:56:38.331Z,98539.63
2023-05-07T08:57:40.697Z,98536.44
2023-05-07T08:58:46.308Z,98545.53
2023-05-07T08:59:48.242Z,98542.53
2023-05-07T09:00:52.689Z,98539.84
2023-05-07T09:01:54.659Z,98540.34
2023-05-07T09:02:57.163Z,98544.63
2023-05-07T09:03:59.356Z,98533.81
2023-05-07T09:05:01.491Z,98532.22
2023-05-07T09:06:03.509Z,98540.03
2023-05-07T09:07:06.559Z,98540.84
2023-05-07T09:08:09.276Z,98547.03
2023-05-07T09:09:18.749Z,98532.16
2023-05-07T09:10:22.271Z,98544.06
2023-05-07T09:11:25.155Z,98534.84
2023-05-07T09:12:27.064Z,98538.66
2023-05-07T09:13:30.543Z,98538.38
2023-05-07T09:14:32.448Z,98540.56
2023-05-07T09:15:34.389Z,98534.84
2023-05-07T09:16:36.509Z,98535.66
2023-05-07T09:17:38.589Z,98537.25
2023-05-07T09:18:44.595Z,98530.75
2023-05-07T09:19:47.181Z,98538.06
2023-05-07T09:20:49.261Z,98529.16
2023-05-07T09:21:58.473Z,98535.06
2023-05-07T09:23:00.457Z,98531.56
2023-05-07T09:24:02.395Z,98535.34
2023-05-07T09:25:05.706Z,98535.56
2023-05-07T09:26:12.738Z,98535.84
2023-05-07T09:27:14.712Z,98530.44
2023-05-07T09:28:16.693Z,98528.84
2023-05-07T09:29:19.244Z,98536.66
2023-05-07T09:30:21.072Z,98531.25
2023-05-07T09:31:24.551Z,98530.16
2023-05-07T09:32:28.296Z,98536.06
2023-05-07T09:33:31.410Z,98532.84
2023-05-07T09:34:34.123Z,98531.44
2023-05-07T09:35:36.164Z,98533.09
2023-05-07T09:36:38.225Z,98526.88
2023-05-07T09:37:42.155Z,98533.09
2023-05-07T09:38:44.051Z,98526.03
2023-05-07T09:39:49.084Z,98528.19
2023-05-07T09:41:04.300Z,98530.28
2023-05-07T09:42:06.713Z,98530.59
2023-05-07T09:43:13.834Z,98525.97
2023-05-07T09:44:16.348Z,98530.59
2023-05-07T09:45:25.973Z,98526.47
2023-05-07T09:46:33.537Z,98526.16
2023-05-07T09:47:40.871Z,98524.28
2023-05-07T09:48:45.200Z,98517.56
2023-05-07T09:49:49.623Z,98519.16
2023-05-07T09:50:59.529Z,98522.38
2023-05-07T09:52:04.014Z,98518.56
2023-05-07T09:53:06.914Z,98523.41
2023-05-07T09:54:09.272Z,98521.25
2023-05-07T09:55:13.226Z,98530.69
2023-05-07T09:56:17.461Z,98521.78
2023-05-07T09:57:21.700Z,98527.41
2023-05-07T09:58:26.576Z,98525.78
2023-05-07T09:59:30.818Z,98525.78
2023-05-07T10:00:33.922Z,98525.19
2023-05-07T10:01:38.576Z,98520.59
2023-05-07T10:02:47.556Z,98521.09
2023-05-07T10:03:53.820Z,98523.25
2023-05-07T10:04:57.302Z,98516.22
2023-05-07T10:06:00.873Z,98520.00
2023-05-07T10:07:04.725Z,98517.03
2023-05-07T10:08:07.844Z,98517.84
2023-05-07T10:09:10.796Z,98514.03
2023-05-07T10:10:13.780Z,98519.94
2023-05-07T10:11:16.683Z,98514.53
2023-05-07T10:12:19.782Z,98513.91
2023-05-07T10:13:22.476Z,98511.50
2023-05-07T10:14:26.017Z,98512.81
2023-05-07T10:15:29.983Z,98519.03
2023-05-07T10:16:37.836Z,98512.50
2023-05-07T10:17:41.055Z,98516.53
2023-05-07T10:18:44.221Z,98506.81
2023-05-07T10:19:46.279Z,98514.63
2023-05-07T10:20:49.273Z,98509.22
2023-05-07T10:21:58.041Z,98510.22
2023-05-07T10:23:00.958Z,98507.81
2023-05-07T10:24:15.636Z,98506.41
2023-05-07T10:25:26.482Z,98505.81
2023-05-07T10:26:32.301Z,98496.88
2023-05-07T10:27:35.323Z,98502.28
2023-05-07T10:28:45.318Z,98493.59
2023-05-07T10:30:08.916Z,98498.91
2023-05-07T10:31:31.481Z,98505.09
2023-05-07T10:32:53.954Z,98502.09
2023-05-07T10:33:59.075Z,98503.50
2023-05-07T10:35:07.689Z,98498.09
2023-05-07T10:36:09.931Z,98498.41
2023-05-07T10:37:12.908Z,98497.59
2023-05-07T10:38:15.095Z,98507.81
2023-05-07T10:39:17.612Z,98498.91
2023-05-07T10:40:22.262Z,98497.00
2023-05-07T10:41:24.223Z,98497.22
2023-05-07T10:42:26.290Z,98489.59
2023-05-07T10:43:44.609Z,98493.28
2023-05-07T10:44:46.816Z,98486.56
2023-05-07T10:46:27.393Z,98483.16
2023-05-07T10:47:29.354Z,98485.97
2023-05-07T10:48:31.491Z,98480.84
2023-05-07T10:49:33.404Z,98483.25
2023-05-07T10:50:36.863Z,98481.34
2023-05-07T10:51:39.611Z,98477.22
2023-05-07T10:52:41.642Z,98479.13
2023-05-07T10:53:43.599Z,98484.28
2023-05-07T10:54:47.038Z,98481.56
2023-05-07T10:55:52.599Z,98478.56
2023-05-07T10:56:54.526Z,98482.56
2023-05-07T10:57:56.397Z,98483.03
2023-05-07T10:59:24.906Z,98478.66
2023-05-07T11:00:39.141Z,98483.03
2023-05-07T11:01:58.806Z,98473.72
2023-05-07T11:03:01.450Z,98478.66
2023-05-07T11:04:25.372Z,98476.94
2023-05-07T11:05:30.239Z,98466.44
2023-05-07T11:06:35.534Z,98472.94
2023-05-07T11:07:37.613Z,98469.13
2023-05-07T11:08:58.137Z,98474.44
2023-05-07T11:10:05.915Z,98465.03
2023-05-07T11:11:08.580Z,98468.22
2023-05-07T11:12:10.626Z,98469.00
2023-05-07T11:13:12.995Z,98468.22
2023-05-07T11:14:45.901Z,98466.41
2023-05-07T11:15:49.488Z,98461.91
2023-05-07T11:17:04.254Z,98463.19
2023-05-07T11:18:07.328Z,98468.63
2023-05-07T11:19:09.216Z,98474.03
2023-05-07T11:20:11.241Z,98462.09
2023-05-07T11:21:13.601Z,98462.59
2023-05-07T11:22:41.156Z,98458.97
2023-05-07T11:23:42.988Z,98466.09
2023-05-07T11:24:45.093Z,98458.75
2023-05-07T11:25:47.377Z,98461.97
2023-05-07T11:26:51.197Z,98458.97
2023-05-07T11:27:53.932Z,98459.78
2023-05-07T11:28:56.225Z,98464.09
2023-05-07T11:29:58.228Z,98470.00
2023-05-07T11:31:00.926Z,98459.16
2023-05-07T11:32:04.350Z,98463.78
2023-05-07T11:33:06.827Z,98464.75
2023-05-07T11:34:10.813Z,98465.84
2023-05-07T11:35:14.502Z,98460.94
2023-05-07T11:36:17.057Z,98459.03
2023-05-07T11:37:20.601Z,98461.16
2023-05-07T11:38:22.938Z,98458.44
2023-05-07T11:39:37.126Z,98450.31
2023-05-07T11:40:57.508Z,98448.28
2023-05-07T11:42:00.797Z,98444.28
2023-05-07T11:43:12.229Z,98452.56
2023-05-07T11:44:14.568Z,98447.16
2023-05-07T11:45:28.030Z,98450.34
2023-05-07T11:46:30.565Z,98452.25
2023-05-07T11:47:33.365Z,98452.78
2023-05-07T11:48:35.859Z,98451.69
2023-05-07T11:49:37.758Z,98453.59
2023-05-07T11:51:00.879Z,98454.56
2023-05-07T11:52:04.365Z,98454.88
2023-05-07T11:53:13.852Z,98451.06
2023-05-07T11:54:19.081Z,98448.81
2023-05-07T11:55:21.639Z,98452.66
2023-05-07T11:56:24.217Z,98440.72
2023-05-07T11:57:26.912Z,98442.31
2023-05-07T11:58:28.759Z,98443.41
2023-05-07T11:59:30.726Z,98442.31
2023-05-07T12:00:32.849Z,98440.88
2023-05-07T12:01:38.064Z,98442.19
2023-05-07T12:02:40.409Z,98443.00
2023-05-07T12:03:45.848Z,98442.19
2023-05-07T12:04:47.835Z,98438.09
2023-05-07T12:05:50.463Z,98436.19
2023-05-07T12:06:56.828Z,98437.16
2023-05-07T12:07:59.185Z,98438.25
2023-05-07T12:09:02.175Z,98438.75
2023-05-07T12:10:08.098Z,98433.84
2023-05-07T12:11:18.485Z,98433.53
2023-05-07T12:12:20.518Z,98435.94
2023-05-07T12:13:27.094Z,98440.56
2023-05-07T12:14:30.206Z,98442.16
2023-05-07T12:15:32.080Z,98449.78
2023-05-07T12:16:34.297Z,98451.06
2023-05-07T12:17:36.401Z,98444.06
2023-05-07T12:18:39.147Z,98448.69
2023-05-07T12:19:44.176Z,98453.00
2023-05-07T12:20:46.602Z,98443.75
2023-05-07T12:21:49.143Z,98439.13
2023-05-07T12:22:53.636Z,98443.44
2023-05-07T12:23:56.064Z,98439.63
2023-05-07T12:24:59.861Z,98451.56